<?xml version="1.0" encoding="UTF-8" standalone="no" ?>
<gpx xmlns="http://www.topografix.com/GPX/1/1" xmlns:xsi="http://www.w3.org/2001/XMLSchema-instance" xsi:schemaLocation="http://www.topografix.com/GPX/1/1 http://www.topografix.com/GPX/1/1/gpx.xsd" version="1.1" creator="VisuGPX - https://www.visugpx.com">
  <metadata>
    <name>3 jours autour de Peyresq</name>
    <desc><![CDATA[Une de nos plus belles sorties. Et une de nos plus belles vidéos. Cette boucle est faisable en 2 jours, largement, si vous gérez bien votre timing.
Elle se passe juste au sud des gorges de Saint Pierre (et un peu plus au sud des lacs de Lignin), et elle nous a cassé la tête. 
Départ de Peyresq, grosse montée pour arriver sur un plateau avec une vue absolument splendide.
Pas grand chose à vous dire à part que rien n'est à jeter tout au long du parcours.
Attention à la montée à la sortie d'Ondres, qui pique un peu les jambes. Et attention à l'eau (Ondres est le dernier point d'eau du parcours, par exemple), très peu disponible.

[b]Lien vers la vidéo de cette sortie :[/b] [url]https://youtu.be/F2SfvsL-XiI[/url]]]></desc>
  </metadata>
  <trk>
    <name><![CDATA[Bivouac du tour de Peyresque et Ondres]]></name>
    <extensions>
      <line xmlns="http://www.topografix.com/GPX/gpx_style/0/2">
        <color>0040ff</color>
        <width>3</width>
      </line>
    </extensions>
    <trkseg>
      <trkpt lat="44.06731" lon="6.61815">
        <ele>1533.2</ele>
        <time>2022-06-14T19:42:38.000Z</time>
      </trkpt>
      <trkpt lat="44.06749" lon="6.61951">
        <ele>1546.7</ele>
        <time>2022-06-14T19:43:26.624Z</time>
      </trkpt>
      <trkpt lat="44.06795" lon="6.62001">
        <ele>1560</ele>
        <time>2022-06-14T19:43:55.186Z</time>
      </trkpt>
      <trkpt lat="44.06731" lon="6.62118">
        <ele>1585.3</ele>
        <time>2022-06-14T19:44:46.889Z</time>
      </trkpt>
      <trkpt lat="44.06713" lon="6.62204">
        <ele>1604.7</ele>
        <time>2022-06-14T19:45:18.385Z</time>
      </trkpt>
      <trkpt lat="44.06741" lon="6.62283">
        <ele>1625.2</ele>
        <time>2022-06-14T19:45:49.358Z</time>
      </trkpt>
      <trkpt lat="44.06792" lon="6.62465">
        <ele>1668.3</ele>
        <time>2022-06-14T19:46:58.045Z</time>
      </trkpt>
      <trkpt lat="44.06758" lon="6.62643">
        <ele>1697.1</ele>
        <time>2022-06-14T19:48:02.805Z</time>
      </trkpt>
      <trkpt lat="44.06778" lon="6.62614">
        <ele>1697.4</ele>
        <time>2022-06-14T19:48:06.855Z</time>
      </trkpt>
      <trkpt lat="44.07141" lon="6.62992">
        <ele>1803.4</ele>
        <time>2022-06-14T19:51:48.706Z</time>
      </trkpt>
      <trkpt lat="44.07206" lon="6.63073">
        <ele>1809.8</ele>
        <time>2022-06-14T19:52:11.558Z</time>
      </trkpt>
      <trkpt lat="44.07213" lon="6.63179">
        <ele>1823.3</ele>
        <time>2022-06-14T19:52:48.983Z</time>
      </trkpt>
      <trkpt lat="44.07274" lon="6.63194">
        <ele>1833.5</ele>
        <time>2022-06-14T19:53:19.296Z</time>
      </trkpt>
      <trkpt lat="44.07278" lon="6.63284">
        <ele>1847.9</ele>
        <time>2022-06-14T19:53:50.999Z</time>
      </trkpt>
      <trkpt lat="44.07333" lon="6.63316">
        <ele>1864.6</ele>
        <time>2022-06-14T19:54:20.170Z</time>
      </trkpt>
      <trkpt lat="44.07317" lon="6.63373">
        <ele>1875.6</ele>
        <time>2022-06-14T19:54:41.685Z</time>
      </trkpt>
      <trkpt lat="44.07387" lon="6.63424">
        <ele>1902.4</ele>
        <time>2022-06-14T19:55:20.349Z</time>
      </trkpt>
      <trkpt lat="44.07495" lon="6.6349">
        <ele>1935.5</ele>
        <time>2022-06-14T19:56:18.068Z</time>
      </trkpt>
      <trkpt lat="44.07598" lon="6.63596">
        <ele>1960.6</ele>
        <time>2022-06-14T19:57:20.752Z</time>
      </trkpt>
      <trkpt lat="44.07668" lon="6.63661">
        <ele>1963.4</ele>
        <time>2022-06-14T19:57:36.108Z</time>
      </trkpt>
      <trkpt lat="44.07653" lon="6.63719">
        <ele>1968.9</ele>
        <time>2022-06-14T19:57:55.226Z</time>
      </trkpt>
      <trkpt lat="44.07688" lon="6.63762">
        <ele>1976.6</ele>
        <time>2022-06-14T19:58:18.071Z</time>
      </trkpt>
      <trkpt lat="44.07707" lon="6.6378">
        <ele>1981.4</ele>
        <time>2022-06-14T19:58:29.318Z</time>
      </trkpt>
      <trkpt lat="44.07703" lon="6.63821">
        <ele>1975.6</ele>
        <time>2022-06-14T19:58:31.504Z</time>
      </trkpt>
      <trkpt lat="44.07864" lon="6.63896">
        <ele>2020.6</ele>
        <time>2022-06-14T19:59:54.585Z</time>
      </trkpt>
      <trkpt lat="44.07977" lon="6.63948">
        <ele>2040.7</ele>
        <time>2022-06-14T20:00:52.825Z</time>
      </trkpt>
      <trkpt lat="44.08061" lon="6.64071">
        <ele>2049.1</ele>
        <time>2022-06-14T20:01:23.693Z</time>
      </trkpt>
      <trkpt lat="44.08073" lon="6.64129">
        <ele>2047.2</ele>
        <time>2022-06-14T20:01:27.226Z</time>
      </trkpt>
      <trkpt lat="44.0821" lon="6.64127">
        <ele>2037.4</ele>
        <time>2022-06-14T20:01:37.303Z</time>
      </trkpt>
      <trkpt lat="44.08231" lon="6.64173">
        <ele>2023.1</ele>
        <time>2022-06-14T20:01:40.182Z</time>
      </trkpt>
      <trkpt lat="44.08311" lon="6.6419">
        <ele>2019.7</ele>
        <time>2022-06-14T20:01:46.887Z</time>
      </trkpt>
      <trkpt lat="44.08483" lon="6.64178">
        <ele>2023.8</ele>
        <time>2022-06-14T20:02:14.830Z</time>
      </trkpt>
      <trkpt lat="44.08556" lon="6.64222">
        <ele>2045.1</ele>
        <time>2022-06-14T20:02:53.757Z</time>
      </trkpt>
      <trkpt lat="44.0863" lon="6.64315">
        <ele>2043.5</ele>
        <time>2022-06-14T20:03:04.655Z</time>
      </trkpt>
      <trkpt lat="44.08714" lon="6.64346">
        <ele>2053.5</ele>
        <time>2022-06-14T20:03:38.262Z</time>
      </trkpt>
      <trkpt lat="44.08792" lon="6.64412">
        <ele>2061.9</ele>
        <time>2022-06-14T20:04:06.205Z</time>
      </trkpt>
      <trkpt lat="44.08882" lon="6.64537">
        <ele>2070.1</ele>
        <time>2022-06-14T20:04:37.368Z</time>
      </trkpt>
      <trkpt lat="44.0895" lon="6.6465">
        <ele>2073.4</ele>
        <time>2022-06-14T20:04:56.169Z</time>
      </trkpt>
      <trkpt lat="44.09034" lon="6.64791">
        <ele>2080.4</ele>
        <time>2022-06-14T20:05:25.983Z</time>
      </trkpt>
      <trkpt lat="44.09101" lon="6.6489">
        <ele>2071.2</ele>
        <time>2022-06-14T20:05:33.168Z</time>
      </trkpt>
      <trkpt lat="44.0919" lon="6.64954">
        <ele>2073.3</ele>
        <time>2022-06-14T20:05:48.897Z</time>
      </trkpt>
      <trkpt lat="44.09208" lon="6.65047">
        <ele>2064.4</ele>
        <time>2022-06-14T20:05:53.985Z</time>
      </trkpt>
      <trkpt lat="44.09162" lon="6.65216">
        <ele>2058.2</ele>
        <time>2022-06-14T20:06:04.193Z</time>
      </trkpt>
      <trkpt lat="44.09111" lon="6.65327">
        <ele>2051</ele>
        <time>2022-06-14T20:06:11.153Z</time>
      </trkpt>
      <trkpt lat="44.09128" lon="6.65405">
        <ele>2050.5</ele>
        <time>2022-06-14T20:06:18.204Z</time>
      </trkpt>
      <trkpt lat="44.09196" lon="6.65451">
        <ele>2053.8</ele>
        <time>2022-06-14T20:06:34.185Z</time>
      </trkpt>
      <trkpt lat="44.09295" lon="6.65516">
        <ele>2047.1</ele>
        <time>2022-06-14T20:06:41.878Z</time>
      </trkpt>
      <trkpt lat="44.09447" lon="6.65593">
        <ele>2036.9</ele>
        <time>2022-06-14T20:06:53.081Z</time>
      </trkpt>
      <trkpt lat="44.09528" lon="6.65652">
        <ele>2033.1</ele>
        <time>2022-06-14T20:07:00.687Z</time>
      </trkpt>
      <trkpt lat="44.09582" lon="6.65759">
        <ele>2031.6</ele>
        <time>2022-06-14T20:07:10.964Z</time>
      </trkpt>
      <trkpt lat="44.09586" lon="6.65811">
        <ele>2028</ele>
        <time>2022-06-14T20:07:13.726Z</time>
      </trkpt>
      <trkpt lat="44.09656" lon="6.65928">
        <ele>2002.6</ele>
        <time>2022-06-14T20:07:21.770Z</time>
      </trkpt>
      <trkpt lat="44.09718" lon="6.66032">
        <ele>1981.2</ele>
        <time>2022-06-14T20:07:28.909Z</time>
      </trkpt>
      <trkpt lat="44.0974" lon="6.66042">
        <ele>1982.2</ele>
        <time>2022-06-14T20:07:33.768Z</time>
      </trkpt>
      <trkpt lat="44.09793" lon="6.65926">
        <ele>1978.2</ele>
        <time>2022-06-14T20:07:42.065Z</time>
      </trkpt>
      <trkpt lat="44.09849" lon="6.65954">
        <ele>1980.3</ele>
        <time>2022-06-14T20:07:53.220Z</time>
      </trkpt>
      <trkpt lat="44.09832" lon="6.65838">
        <ele>1985.9</ele>
        <time>2022-06-14T20:08:14.270Z</time>
      </trkpt>
      <trkpt lat="44.09909" lon="6.6569">
        <ele>2005.9</ele>
        <time>2022-06-14T20:09:18.495Z</time>
      </trkpt>
      <trkpt lat="44.09948" lon="6.65586">
        <ele>2011.8</ele>
        <time>2022-06-14T20:09:40.009Z</time>
      </trkpt>
      <trkpt lat="44.0997" lon="6.6543">
        <ele>2009.1</ele>
        <time>2022-06-14T20:09:51.423Z</time>
      </trkpt>
      <trkpt lat="44.09993" lon="6.65355">
        <ele>2009.6</ele>
        <time>2022-06-14T20:09:59.483Z</time>
      </trkpt>
      <trkpt lat="44.10044" lon="6.65372">
        <ele>2014.3</ele>
        <time>2022-06-14T20:10:15.196Z</time>
      </trkpt>
      <trkpt lat="44.10137" lon="6.65517">
        <ele>2038.6</ele>
        <time>2022-06-14T20:11:23.516Z</time>
      </trkpt>
      <trkpt lat="44.10221" lon="6.65603">
        <ele>2049.1</ele>
        <time>2022-06-14T20:11:58.153Z</time>
      </trkpt>
      <trkpt lat="44.10303" lon="6.65688">
        <ele>2054.8</ele>
        <time>2022-06-14T20:12:21.720Z</time>
      </trkpt>
      <trkpt lat="44.10377" lon="6.65784">
        <ele>2066.1</ele>
        <time>2022-06-14T20:12:59.394Z</time>
      </trkpt>
      <trkpt lat="44.10427" lon="6.6584">
        <ele>2078.9</ele>
        <time>2022-06-14T20:13:30.793Z</time>
      </trkpt>
      <trkpt lat="44.10508" lon="6.65919">
        <ele>2092.6</ele>
        <time>2022-06-14T20:14:19.184Z</time>
      </trkpt>
      <trkpt lat="44.1058" lon="6.6598">
        <ele>2094.6</ele>
        <time>2022-06-14T20:14:32.846Z</time>
      </trkpt>
      <trkpt lat="44.10578" lon="6.65891">
        <ele>2095.8</ele>
        <time>2022-06-14T20:14:42.642Z</time>
      </trkpt>
      <trkpt lat="44.10495" lon="6.6568">
        <ele>2081.7</ele>
        <time>2022-06-14T20:14:55.347Z</time>
      </trkpt>
      <trkpt lat="44.10472" lon="6.65572">
        <ele>2078.1</ele>
        <time>2022-06-14T20:15:01.898Z</time>
      </trkpt>
      <trkpt lat="44.10488" lon="6.65518">
        <ele>2070.4</ele>
        <time>2022-06-14T20:15:04.983Z</time>
      </trkpt>
      <trkpt lat="44.10538" lon="6.65547">
        <ele>2072.3</ele>
        <time>2022-06-14T20:15:15.108Z</time>
      </trkpt>
      <trkpt lat="44.10645" lon="6.65632">
        <ele>2067.4</ele>
        <time>2022-06-14T20:15:25.532Z</time>
      </trkpt>
      <trkpt lat="44.1071" lon="6.6569">
        <ele>2064.5</ele>
        <time>2022-06-14T20:15:32.205Z</time>
      </trkpt>
      <trkpt lat="44.10776" lon="6.65665">
        <ele>2049.2</ele>
        <time>2022-06-14T20:15:37.235Z</time>
      </trkpt>
      <trkpt lat="44.10827" lon="6.65691">
        <ele>2046.2</ele>
        <time>2022-06-14T20:15:41.241Z</time>
      </trkpt>
      <trkpt lat="44.10901" lon="6.65743">
        <ele>2029.1</ele>
        <time>2022-06-14T20:15:47.337Z</time>
      </trkpt>
      <trkpt lat="44.10931" lon="6.65837">
        <ele>2036.6</ele>
        <time>2022-06-14T20:16:12.077Z</time>
      </trkpt>
      <trkpt lat="44.10977" lon="6.65925">
        <ele>2043.1</ele>
        <time>2022-06-14T20:16:34.229Z</time>
      </trkpt>
      <trkpt lat="44.11003" lon="6.65854">
        <ele>2032.6</ele>
        <time>2022-06-14T20:16:38.438Z</time>
      </trkpt>
      <trkpt lat="44.11011" lon="6.65794">
        <ele>2028.5</ele>
        <time>2022-06-14T20:16:41.660Z</time>
      </trkpt>
      <trkpt lat="44.11064" lon="6.6574">
        <ele>2038.8</ele>
        <time>2022-06-14T20:17:13.795Z</time>
      </trkpt>
      <trkpt lat="44.11081" lon="6.65708">
        <ele>2033.2</ele>
        <time>2022-06-14T20:17:15.897Z</time>
      </trkpt>
      <trkpt lat="44.11142" lon="6.6566">
        <ele>2048.7</ele>
        <time>2022-06-14T20:17:50.183Z</time>
      </trkpt>
      <trkpt lat="44.1113" lon="6.65633">
        <ele>2049.7</ele>
        <time>2022-06-14T20:17:55.018Z</time>
      </trkpt>
      <trkpt lat="44.11071" lon="6.65597">
        <ele>2042.4</ele>
        <time>2022-06-14T20:17:59.755Z</time>
      </trkpt>
      <trkpt lat="44.11066" lon="6.65484">
        <ele>2050.5</ele>
        <time>2022-06-14T20:18:26.482Z</time>
      </trkpt>
      <trkpt lat="44.11054" lon="6.65385">
        <ele>2051.6</ele>
        <time>2022-06-14T20:18:37.113Z</time>
      </trkpt>
      <trkpt lat="44.11055" lon="6.65236">
        <ele>2045.3</ele>
        <time>2022-06-14T20:18:44.773Z</time>
      </trkpt>
      <trkpt lat="44.11038" lon="6.65128">
        <ele>2052</ele>
        <time>2022-06-14T20:19:07.508Z</time>
      </trkpt>
      <trkpt lat="44.11116" lon="6.65056">
        <ele>2038.1</ele>
        <time>2022-06-14T20:19:14.390Z</time>
      </trkpt>
      <trkpt lat="44.11126" lon="6.65044">
        <ele>2043</ele>
        <time>2022-06-14T20:19:20.849Z</time>
      </trkpt>
      <trkpt lat="44.10936" lon="6.64803">
        <ele>2047</ele>
        <time>2022-06-14T20:19:58.875Z</time>
      </trkpt>
      <trkpt lat="44.10917" lon="6.64619">
        <ele>2040.8</ele>
        <time>2022-06-14T20:20:09.495Z</time>
      </trkpt>
      <trkpt lat="44.1063" lon="6.64419">
        <ele>2038.9</ele>
        <time>2022-06-14T20:20:46.824Z</time>
      </trkpt>
      <trkpt lat="44.10607" lon="6.64315">
        <ele>2035.3</ele>
        <time>2022-06-14T20:20:53.062Z</time>
      </trkpt>
      <trkpt lat="44.10662" lon="6.64227">
        <ele>2033.4</ele>
        <time>2022-06-14T20:21:01.529Z</time>
      </trkpt>
      <trkpt lat="44.10667" lon="6.64178">
        <ele>2026.5</ele>
        <time>2022-06-14T20:21:04.143Z</time>
      </trkpt>
      <trkpt lat="44.10697" lon="6.6414">
        <ele>2030</ele>
        <time>2022-06-14T20:21:15.947Z</time>
      </trkpt>
      <trkpt lat="44.10679" lon="6.64091">
        <ele>2028</ele>
        <time>2022-06-14T20:21:18.979Z</time>
      </trkpt>
      <trkpt lat="44.10675" lon="6.63989">
        <ele>2027.1</ele>
        <time>2022-06-14T20:21:27.388Z</time>
      </trkpt>
      <trkpt lat="44.10639" lon="6.63846">
        <ele>2026.5</ele>
        <time>2022-06-14T20:21:40.117Z</time>
      </trkpt>
      <trkpt lat="44.10601" lon="6.63759">
        <ele>2019.4</ele>
        <time>2022-06-14T20:21:45.495Z</time>
      </trkpt>
      <trkpt lat="44.10561" lon="6.63715">
        <ele>2017.4</ele>
        <time>2022-06-14T20:21:49.830Z</time>
      </trkpt>
      <trkpt lat="44.10481" lon="6.63567">
        <ele>2010.3</ele>
        <time>2022-06-14T20:21:59.797Z</time>
      </trkpt>
      <trkpt lat="44.10521" lon="6.63427">
        <ele>2016.5</ele>
        <time>2022-06-14T20:22:25.005Z</time>
      </trkpt>
      <trkpt lat="44.10521" lon="6.63347">
        <ele>2006.2</ele>
        <time>2022-06-14T20:22:29.230Z</time>
      </trkpt>
      <trkpt lat="44.10534" lon="6.63321">
        <ele>2008.3</ele>
        <time>2022-06-14T20:22:36.212Z</time>
      </trkpt>
      <trkpt lat="44.10542" lon="6.63255">
        <ele>2001.7</ele>
        <time>2022-06-14T20:22:39.747Z</time>
      </trkpt>
      <trkpt lat="44.10577" lon="6.63267">
        <ele>2004.8</ele>
        <time>2022-06-14T20:22:50.212Z</time>
      </trkpt>
      <trkpt lat="44.10665" lon="6.63311">
        <ele>2004.7</ele>
        <time>2022-06-14T20:23:01.883Z</time>
      </trkpt>
      <trkpt lat="44.10752" lon="6.63379">
        <ele>2014</ele>
        <time>2022-06-14T20:23:32.757Z</time>
      </trkpt>
      <trkpt lat="44.10861" lon="6.63378">
        <ele>2002.8</ele>
        <time>2022-06-14T20:23:40.774Z</time>
      </trkpt>
      <trkpt lat="44.10944" lon="6.63427">
        <ele>2003.5</ele>
        <time>2022-06-14T20:23:53.087Z</time>
      </trkpt>
      <trkpt lat="44.11033" lon="6.63545">
        <ele>2008</ele>
        <time>2022-06-14T20:24:16.546Z</time>
      </trkpt>
      <trkpt lat="44.11119" lon="6.63619">
        <ele>2011.1</ele>
        <time>2022-06-14T20:24:34.380Z</time>
      </trkpt>
      <trkpt lat="44.11205" lon="6.63609">
        <ele>2006.5</ele>
        <time>2022-06-14T20:24:40.850Z</time>
      </trkpt>
      <trkpt lat="44.11274" lon="6.6359">
        <ele>2002</ele>
        <time>2022-06-14T20:24:45.688Z</time>
      </trkpt>
      <trkpt lat="44.11354" lon="6.63616">
        <ele>2005.4</ele>
        <time>2022-06-14T20:25:02.473Z</time>
      </trkpt>
      <trkpt lat="44.11404" lon="6.63608">
        <ele>1996.6</ele>
        <time>2022-06-14T20:25:06.175Z</time>
      </trkpt>
      <trkpt lat="44.11347" lon="6.63502">
        <ele>1990.9</ele>
        <time>2022-06-14T20:25:12.925Z</time>
      </trkpt>
      <trkpt lat="44.11253" lon="6.63444">
        <ele>1970.6</ele>
        <time>2022-06-14T20:25:20.486Z</time>
      </trkpt>
      <trkpt lat="44.11194" lon="6.63354">
        <ele>1954.8</ele>
        <time>2022-06-14T20:25:26.921Z</time>
      </trkpt>
      <trkpt lat="44.11226" lon="6.63144">
        <ele>1952.1</ele>
        <time>2022-06-14T20:25:43.472Z</time>
      </trkpt>
      <trkpt lat="44.11169" lon="6.63101">
        <ele>1931.4</ele>
        <time>2022-06-14T20:25:48.239Z</time>
      </trkpt>
      <trkpt lat="44.11149" lon="6.63023">
        <ele>1928</ele>
        <time>2022-06-14T20:25:52.556Z</time>
      </trkpt>
      <trkpt lat="44.11094" lon="6.62934">
        <ele>1913.1</ele>
        <time>2022-06-14T20:25:58.757Z</time>
      </trkpt>
      <trkpt lat="44.11078" lon="6.62895">
        <ele>1915.1</ele>
        <time>2022-06-14T20:26:06.523Z</time>
      </trkpt>
      <trkpt lat="44.10963" lon="6.62849">
        <ele>1900.4</ele>
        <time>2022-06-14T20:26:15.322Z</time>
      </trkpt>
      <trkpt lat="44.11048" lon="6.62953">
        <ele>1888.4</ele>
        <time>2022-06-14T20:26:23.643Z</time>
      </trkpt>
      <trkpt lat="44.11005" lon="6.62956">
        <ele>1880</ele>
        <time>2022-06-14T20:26:26.810Z</time>
      </trkpt>
      <trkpt lat="44.10896" lon="6.62907">
        <ele>1860.4</ele>
        <time>2022-06-14T20:26:35.233Z</time>
      </trkpt>
      <trkpt lat="44.10802" lon="6.62805">
        <ele>1838.3</ele>
        <time>2022-06-14T20:26:43.997Z</time>
      </trkpt>
      <trkpt lat="44.1087" lon="6.6253">
        <ele>1830.9</ele>
        <time>2022-06-14T20:27:02.432Z</time>
      </trkpt>
      <trkpt lat="44.108" lon="6.6247">
        <ele>1811</ele>
        <time>2022-06-14T20:27:08.477Z</time>
      </trkpt>
      <trkpt lat="44.10785" lon="6.62375">
        <ele>1810.8</ele>
        <time>2022-06-14T20:27:16.965Z</time>
      </trkpt>
      <trkpt lat="44.10814" lon="6.62228">
        <ele>1806.9</ele>
        <time>2022-06-14T20:27:26.609Z</time>
      </trkpt>
      <trkpt lat="44.10801" lon="6.62132">
        <ele>1799.7</ele>
        <time>2022-06-14T20:27:31.768Z</time>
      </trkpt>
      <trkpt lat="44.10819" lon="6.62102">
        <ele>1805.2</ele>
        <time>2022-06-14T20:27:45.505Z</time>
      </trkpt>
      <trkpt lat="44.10842" lon="6.62034">
        <ele>1795.1</ele>
        <time>2022-06-14T20:27:49.474Z</time>
      </trkpt>
      <trkpt lat="44.10875" lon="6.61934">
        <ele>1791.3</ele>
        <time>2022-06-14T20:27:55.671Z</time>
      </trkpt>
      <trkpt lat="44.10884" lon="6.61784">
        <ele>1771.2</ele>
        <time>2022-06-14T20:28:03.620Z</time>
      </trkpt>
      <trkpt lat="44.10937" lon="6.61698">
        <ele>1766.1</ele>
        <time>2022-06-14T20:28:09.273Z</time>
      </trkpt>
      <trkpt lat="44.10966" lon="6.61686">
        <ele>1770.2</ele>
        <time>2022-06-14T20:28:24.078Z</time>
      </trkpt>
      <trkpt lat="44.1101" lon="6.61619">
        <ele>1758.2</ele>
        <time>2022-06-14T20:28:28.872Z</time>
      </trkpt>
      <trkpt lat="44.11091" lon="6.61586">
        <ele>1764</ele>
        <time>2022-06-14T20:28:50.213Z</time>
      </trkpt>
      <trkpt lat="44.11106" lon="6.61418">
        <ele>1737</ele>
        <time>2022-06-14T20:28:59.152Z</time>
      </trkpt>
      <trkpt lat="44.11149" lon="6.61326">
        <ele>1732.8</ele>
        <time>2022-06-14T20:29:05.062Z</time>
      </trkpt>
      <trkpt lat="44.11195" lon="6.61259">
        <ele>1719.2</ele>
        <time>2022-06-14T20:29:09.957Z</time>
      </trkpt>
      <trkpt lat="44.11158" lon="6.6125">
        <ele>1707.6</ele>
        <time>2022-06-14T20:29:12.719Z</time>
      </trkpt>
      <trkpt lat="44.11199" lon="6.612">
        <ele>1690.3</ele>
        <time>2022-06-14T20:29:16.727Z</time>
      </trkpt>
      <trkpt lat="44.11105" lon="6.61227">
        <ele>1679</ele>
        <time>2022-06-14T20:29:23.786Z</time>
      </trkpt>
      <trkpt lat="44.11149" lon="6.61144">
        <ele>1659.5</ele>
        <time>2022-06-14T20:29:29.234Z</time>
      </trkpt>
      <trkpt lat="44.11101" lon="6.61146">
        <ele>1646.7</ele>
        <time>2022-06-14T20:29:32.766Z</time>
      </trkpt>
      <trkpt lat="44.11162" lon="6.61054">
        <ele>1615.2</ele>
        <time>2022-06-14T20:29:39.378Z</time>
      </trkpt>
      <trkpt lat="44.11206" lon="6.61068">
        <ele>1637.8</ele>
        <time>2022-06-14T20:30:01.465Z</time>
      </trkpt>
      <trkpt lat="44.11192" lon="6.60941">
        <ele>1602.5</ele>
        <time>2022-06-14T20:30:08.249Z</time>
      </trkpt>
      <trkpt lat="44.11236" lon="6.60966">
        <ele>1616.6</ele>
        <time>2022-06-14T20:30:31.504Z</time>
      </trkpt>
      <trkpt lat="44.11241" lon="6.60919">
        <ele>1606.8</ele>
        <time>2022-06-14T20:30:34.012Z</time>
      </trkpt>
      <trkpt lat="44.11237" lon="6.60841">
        <ele>1595.4</ele>
        <time>2022-06-14T20:30:38.142Z</time>
      </trkpt>
      <trkpt lat="44.11263" lon="6.60787">
        <ele>1597.6</ele>
        <time>2022-06-14T20:30:48.306Z</time>
      </trkpt>
      <trkpt lat="44.11256" lon="6.6073">
        <ele>1577.7</ele>
        <time>2022-06-14T20:30:51.360Z</time>
      </trkpt>
      <trkpt lat="44.11316" lon="6.6069">
        <ele>1580.6</ele>
        <time>2022-06-14T20:31:05.409Z</time>
      </trkpt>
      <trkpt lat="44.1129" lon="6.60598">
        <ele>1555.2</ele>
        <time>2022-06-14T20:31:10.630Z</time>
      </trkpt>
      <trkpt lat="44.11324" lon="6.60508">
        <ele>1545.2</ele>
        <time>2022-06-14T20:31:16.000Z</time>
      </trkpt>
      <trkpt lat="44.11438" lon="6.60406">
        <ele>1534.6</ele>
        <time>2022-06-14T20:31:25.965Z</time>
      </trkpt>
      <trkpt lat="44.11472" lon="6.60326">
        <ele>1518</ele>
        <time>2022-06-14T20:31:30.874Z</time>
      </trkpt>
      <trkpt lat="44.11494" lon="6.60205">
        <ele>1495.7</ele>
        <time>2022-06-14T20:31:37.465Z</time>
      </trkpt>
      <trkpt lat="44.11508" lon="6.60139">
        <ele>1485.9</ele>
        <time>2022-06-14T20:31:41.098Z</time>
      </trkpt>
      <trkpt lat="44.11505" lon="6.60054">
        <ele>1470</ele>
        <time>2022-06-14T20:31:45.592Z</time>
      </trkpt>
      <trkpt lat="44.11524" lon="6.59966">
        <ele>1453</ele>
        <time>2022-06-14T20:31:50.444Z</time>
      </trkpt>
      <trkpt lat="44.11465" lon="6.5987">
        <ele>1424.7</ele>
        <time>2022-06-14T20:31:57.117Z</time>
      </trkpt>
      <trkpt lat="44.1139" lon="6.59934">
        <ele>1417.9</ele>
        <time>2022-06-14T20:32:03.585Z</time>
      </trkpt>
      <trkpt lat="44.11424" lon="6.598">
        <ele>1401.1</ele>
        <time>2022-06-14T20:32:11.090Z</time>
      </trkpt>
      <trkpt lat="44.11466" lon="6.59675">
        <ele>1390.4</ele>
        <time>2022-06-14T20:32:18.377Z</time>
      </trkpt>
      <trkpt lat="44.11442" lon="6.5958">
        <ele>1362.4</ele>
        <time>2022-06-14T20:32:23.695Z</time>
      </trkpt>
      <trkpt lat="44.11481" lon="6.59436">
        <ele>1356.2</ele>
        <time>2022-06-14T20:32:31.787Z</time>
      </trkpt>
      <trkpt lat="44.11514" lon="6.59356">
        <ele>1353.4</ele>
        <time>2022-06-14T20:32:37.262Z</time>
      </trkpt>
      <trkpt lat="44.11525" lon="6.59258">
        <ele>1342.6</ele>
        <time>2022-06-14T20:32:42.500Z</time>
      </trkpt>
      <trkpt lat="44.11607" lon="6.59129">
        <ele>1329.2</ele>
        <time>2022-06-14T20:32:51.597Z</time>
      </trkpt>
      <trkpt lat="44.11517" lon="6.59165">
        <ele>1318.4</ele>
        <time>2022-06-14T20:32:58.484Z</time>
      </trkpt>
      <trkpt lat="44.11414" lon="6.59277">
        <ele>1307</ele>
        <time>2022-06-14T20:33:08.094Z</time>
      </trkpt>
      <trkpt lat="44.11357" lon="6.59445">
        <ele>1308</ele>
        <time>2022-06-14T20:33:26.267Z</time>
      </trkpt>
      <trkpt lat="44.11257" lon="6.59658">
        <ele>1302.1</ele>
        <time>2022-06-14T20:33:42.916Z</time>
      </trkpt>
      <trkpt lat="44.11183" lon="6.59799">
        <ele>1301.7</ele>
        <time>2022-06-14T20:33:58.084Z</time>
      </trkpt>
      <trkpt lat="44.11132" lon="6.59975">
        <ele>1300.8</ele>
        <time>2022-06-14T20:34:13.783Z</time>
      </trkpt>
      <trkpt lat="44.11155" lon="6.60008">
        <ele>1318.8</ele>
        <time>2022-06-14T20:34:29.942Z</time>
      </trkpt>
      <trkpt lat="44.11095" lon="6.60154">
        <ele>1328.2</ele>
        <time>2022-06-14T20:35:02.711Z</time>
      </trkpt>
      <trkpt lat="44.11048" lon="6.60269">
        <ele>1327</ele>
        <time>2022-06-14T20:35:13.553Z</time>
      </trkpt>
      <trkpt lat="44.10988" lon="6.60287">
        <ele>1328.6</ele>
        <time>2022-06-14T20:35:23.782Z</time>
      </trkpt>
      <trkpt lat="44.10921" lon="6.60438">
        <ele>1325.1</ele>
        <time>2022-06-14T20:35:36.000Z</time>
      </trkpt>
      <trkpt lat="44.10843" lon="6.6045">
        <ele>1321.2</ele>
        <time>2022-06-14T20:35:42.067Z</time>
      </trkpt>
      <trkpt lat="44.10623" lon="6.60759">
        <ele>1324</ele>
        <time>2022-06-14T20:36:25.253Z</time>
      </trkpt>
      <trkpt lat="44.10564" lon="6.60796">
        <ele>1313.4</ele>
        <time>2022-06-14T20:36:30.012Z</time>
      </trkpt>
      <trkpt lat="44.10549" lon="6.60859">
        <ele>1323</ele>
        <time>2022-06-14T20:36:53.334Z</time>
      </trkpt>
      <trkpt lat="44.1049" lon="6.60863">
        <ele>1310.7</ele>
        <time>2022-06-14T20:36:57.679Z</time>
      </trkpt>
      <trkpt lat="44.10438" lon="6.60929">
        <ele>1314.6</ele>
        <time>2022-06-14T20:37:13.862Z</time>
      </trkpt>
      <trkpt lat="44.10404" lon="6.60973">
        <ele>1317.9</ele>
        <time>2022-06-14T20:37:25.811Z</time>
      </trkpt>
      <trkpt lat="44.10345" lon="6.60996">
        <ele>1300.2</ele>
        <time>2022-06-14T20:37:30.317Z</time>
      </trkpt>
      <trkpt lat="44.10329" lon="6.61115">
        <ele>1317.7</ele>
        <time>2022-06-14T20:38:12.860Z</time>
      </trkpt>
      <trkpt lat="44.10276" lon="6.6118">
        <ele>1308.5</ele>
        <time>2022-06-14T20:38:18.054Z</time>
      </trkpt>
      <trkpt lat="44.10263" lon="6.61123">
        <ele>1312.8</ele>
        <time>2022-06-14T20:38:32.240Z</time>
      </trkpt>
      <trkpt lat="44.10216" lon="6.6108">
        <ele>1339.7</ele>
        <time>2022-06-14T20:38:59.759Z</time>
      </trkpt>
      <trkpt lat="44.10203" lon="6.61177">
        <ele>1345.8</ele>
        <time>2022-06-14T20:39:20.346Z</time>
      </trkpt>
      <trkpt lat="44.10176" lon="6.6114">
        <ele>1364</ele>
        <time>2022-06-14T20:39:38.883Z</time>
      </trkpt>
      <trkpt lat="44.1017" lon="6.61261">
        <ele>1374.5</ele>
        <time>2022-06-14T20:40:14.816Z</time>
      </trkpt>
      <trkpt lat="44.10116" lon="6.61094">
        <ele>1389.2</ele>
        <time>2022-06-14T20:41:03.829Z</time>
      </trkpt>
      <trkpt lat="44.10051" lon="6.61052">
        <ele>1424.6</ele>
        <time>2022-06-14T20:41:38.895Z</time>
      </trkpt>
      <trkpt lat="44.10057" lon="6.60989">
        <ele>1444.9</ele>
        <time>2022-06-14T20:42:01.228Z</time>
      </trkpt>
      <trkpt lat="44.10012" lon="6.61009">
        <ele>1466.1</ele>
        <time>2022-06-14T20:42:24.343Z</time>
      </trkpt>
      <trkpt lat="44.10045" lon="6.60936">
        <ele>1478.4</ele>
        <time>2022-06-14T20:42:54.656Z</time>
      </trkpt>
      <trkpt lat="44.10098" lon="6.60871">
        <ele>1495</ele>
        <time>2022-06-14T20:43:29.216Z</time>
      </trkpt>
      <trkpt lat="44.10032" lon="6.60875">
        <ele>1511</ele>
        <time>2022-06-14T20:44:01.544Z</time>
      </trkpt>
      <trkpt lat="44.09949" lon="6.60907">
        <ele>1550.8</ele>
        <time>2022-06-14T20:44:43.689Z</time>
      </trkpt>
      <trkpt lat="44.09816" lon="6.61092">
        <ele>1617.1</ele>
        <time>2022-06-14T20:46:15.682Z</time>
      </trkpt>
      <trkpt lat="44.09753" lon="6.61136">
        <ele>1627.9</ele>
        <time>2022-06-14T20:46:50.172Z</time>
      </trkpt>
      <trkpt lat="44.09608" lon="6.61142">
        <ele>1662.5</ele>
        <time>2022-06-14T20:48:01.159Z</time>
      </trkpt>
      <trkpt lat="44.0954" lon="6.61191">
        <ele>1667.4</ele>
        <time>2022-06-14T20:48:19.860Z</time>
      </trkpt>
      <trkpt lat="44.09468" lon="6.6119">
        <ele>1688.4</ele>
        <time>2022-06-14T20:48:55.095Z</time>
      </trkpt>
      <trkpt lat="44.09398" lon="6.61227">
        <ele>1700.1</ele>
        <time>2022-06-14T20:49:31.735Z</time>
      </trkpt>
      <trkpt lat="44.09356" lon="6.61211">
        <ele>1717.1</ele>
        <time>2022-06-14T20:49:53.043Z</time>
      </trkpt>
      <trkpt lat="44.09134" lon="6.6121">
        <ele>1751.6</ele>
        <time>2022-06-14T20:51:41.681Z</time>
      </trkpt>
      <trkpt lat="44.09041" lon="6.61246">
        <ele>1766.1</ele>
        <time>2022-06-14T20:52:28.917Z</time>
      </trkpt>
      <trkpt lat="44.08899" lon="6.61337">
        <ele>1779.2</ele>
        <time>2022-06-14T20:53:13.460Z</time>
      </trkpt>
      <trkpt lat="44.08733" lon="6.61392">
        <ele>1769.4</ele>
        <time>2022-06-14T20:53:25.822Z</time>
      </trkpt>
      <trkpt lat="44.08591" lon="6.61474">
        <ele>1757.2</ele>
        <time>2022-06-14T20:53:37.128Z</time>
      </trkpt>
      <trkpt lat="44.08487" lon="6.61541">
        <ele>1753</ele>
        <time>2022-06-14T20:53:47.123Z</time>
      </trkpt>
      <trkpt lat="44.0837" lon="6.61558">
        <ele>1744.2</ele>
        <time>2022-06-14T20:53:55.774Z</time>
      </trkpt>
      <trkpt lat="44.08249" lon="6.61581">
        <ele>1725.1</ele>
        <time>2022-06-14T20:54:04.756Z</time>
      </trkpt>
      <trkpt lat="44.07875" lon="6.61566">
        <ele>1655.4</ele>
        <time>2022-06-14T20:54:32.273Z</time>
      </trkpt>
      <trkpt lat="44.07798" lon="6.6156">
        <ele>1643.6</ele>
        <time>2022-06-14T20:54:37.945Z</time>
      </trkpt>
      <trkpt lat="44.07654" lon="6.6161">
        <ele>1627</ele>
        <time>2022-06-14T20:54:48.860Z</time>
      </trkpt>
      <trkpt lat="44.07552" lon="6.61633">
        <ele>1606.4</ele>
        <time>2022-06-14T20:54:56.459Z</time>
      </trkpt>
      <trkpt lat="44.07454" lon="6.61651">
        <ele>1595.7</ele>
        <time>2022-06-14T20:55:03.729Z</time>
      </trkpt>
      <trkpt lat="44.0739" lon="6.61625">
        <ele>1592.1</ele>
        <time>2022-06-14T20:55:08.698Z</time>
      </trkpt>
      <trkpt lat="44.07354" lon="6.6164">
        <ele>1588.1</ele>
        <time>2022-06-14T20:55:11.462Z</time>
      </trkpt>
      <trkpt lat="44.07326" lon="6.61608">
        <ele>1587.1</ele>
        <time>2022-06-14T20:55:14.930Z</time>
      </trkpt>
      <trkpt lat="44.07172" lon="6.61579">
        <ele>1584.2</ele>
        <time>2022-06-14T20:55:31.389Z</time>
      </trkpt>
      <trkpt lat="44.07078" lon="6.61489">
        <ele>1571.3</ele>
        <time>2022-06-14T20:55:39.780Z</time>
      </trkpt>
      <trkpt lat="44.07011" lon="6.61422">
        <ele>1547.2</ele>
        <time>2022-06-14T20:55:45.848Z</time>
      </trkpt>
      <trkpt lat="44.06917" lon="6.61395">
        <ele>1533.9</ele>
        <time>2022-06-14T20:55:52.907Z</time>
      </trkpt>
      <trkpt lat="44.06884" lon="6.6152">
        <ele>1528.2</ele>
        <time>2022-06-14T20:55:59.720Z</time>
      </trkpt>
      <trkpt lat="44.06833" lon="6.61639">
        <ele>1530.9</ele>
        <time>2022-06-14T20:56:16.525Z</time>
      </trkpt>
      <trkpt lat="44.06728" lon="6.61769">
        <ele>1530.4</ele>
        <time>2022-06-14T20:56:33.433Z</time>
      </trkpt>
    </trkseg>
  </trk>
</gpx>